sensor_id;sensor_type;location;lat;lon;timestamp;P1;durP1;ratioP1;P2;durP2;ratioP2
29380;SDS011;16364;52.490;13.326;2023-08-12T00:00:21;12.43;;;9.63;;
29380;SDS011;16364;52.490;13.326;2023-08-12T00:02:47;16.43;;;9.23;;
29380;SDS011;16364;52.490;13.326;2023-08-12T00:05:12;9.40;;;6.77;;
29380;SDS011;16364;52.490;13.326;2023-08-12T00:07:39;5.53;;;5.00;;
29380;SDS011;16364;52.490;13.326;2023-08-12T00:10:06;8.20;;;4.63;;
29380;SDS011;16364;52.490;13.326;2023-08-12T00:12:31;3.40;;;3.10;;
29380;SDS011;16364;52.490;13.326;2023-08-12T00:14:57;5.73;;;4.33;;
29380;SDS011;16364;52.490;13.326;2023-08-12T00:17:23;4.30;;;3.93;;
29380;SDS011;16364;52.490;13.326;2023-08-12T00:19:48;3.47;;;3.17;;
29380;SDS011;16364;52.490;13.326;2023-08-12T00:22:13;3.60;;;3.20;;
29380;SDS011;16364;52.490;13.326;2023-08-12T00:24:39;3.67;;;3.47;;
29380;SDS011;16364;52.490;13.326;2023-08-12T00:27:05;3.57;;;3.27;;
29380;SDS011;16364;52.490;13.326;2023-08-12T00:29:31;3.33;;;3.13;;
29380;SDS011;16364;52.490;13.326;2023-08-12T00:31:56;4.07;;;3.67;;
29380;SDS011;16364;52.490;13.326;2023-08-12T00:34:22;3.03;;;2.83;;
29380;SDS011;16364;52.490;13.326;2023-08-12T00:36:47;2.93;;;2.70;;
29380;SDS011;16364;52.490;13.326;2023-08-12T00:39:12;3.57;;;3.27;;
29380;SDS011;16364;52.490;13.326;2023-08-12T00:41:38;3.07;;;2.80;;
29380;SDS011;16364;52.490;13.326;2023-08-12T00:44:03;3.10;;;2.80;;
29380;SDS011;16364;52.490;13.326;2023-08-12T00:46:28;3.50;;;3.13;;
29380;SDS011;16364;52.490;13.326;2023-08-12T00:48:54;2.70;;;2.50;;
29380;SDS011;16364;52.490;13.326;2023-08-12T00:51:19;3.40;;;3.20;;
29380;SDS011;16364;52.490;13.326;2023-08-12T00:53:44;3.40;;;3.10;;
29380;SDS011;16364;52.490;13.326;2023-08-12T00:56:11;3.10;;;2.80;;
29380;SDS011;16364;52.490;13.326;2023-08-12T00:58:36;3.60;;;3.40;;
29380;SDS011;16364;52.490;13.326;2023-08-12T01:01:02;3.53;;;2.97;;
29380;SDS011;16364;52.490;13.326;2023-08-12T01:03:29;2.93;;;2.60;;
29380;SDS011;16364;52.490;13.326;2023-08-12T01:05:54;2.80;;;2.60;;
29380;SDS011;16364;52.490;13.326;2023-08-12T01:08:20;2.63;;;2.43;;
29380;SDS011;16364;52.490;13.326;2023-08-12T01:10:48;2.67;;;2.57;;
29380;SDS011;16364;52.490;13.326;2023-08-12T01:13:26;3.50;;;3.00;;
29380;SDS011;16364;52.490;13.326;2023-08-12T01:15:55;3.60;;;3.40;;
29380;SDS011;16364;52.490;13.326;2023-08-12T01:18:21;2.93;;;2.73;;
29380;SDS011;16364;52.490;13.326;2023-08-12T01:20:47;3.77;;;2.70;;
29380;SDS011;16364;52.490;13.326;2023-08-12T01:23:13;3.13;;;2.93;;
29380;SDS011;16364;52.490;13.326;2023-08-12T01:25:39;3.00;;;2.80;;
29380;SDS011;16364;52.490;13.326;2023-08-12T01:28:04;4.03;;;3.60;;
29380;SDS011;16364;52.490;13.326;2023-08-12T01:30:30;3.83;;;3.63;;
29380;SDS011;16364;52.490;13.326;2023-08-12T01:32:59;2.70;;;2.50;;
29380;SDS011;16364;52.490;13.326;2023-08-12T01:35:32;3.60;;;3.40;;
29380;SDS011;16364;52.490;13.326;2023-08-12T01:37:58;3.10;;;2.90;;
29380;SDS011;16364;52.490;13.326;2023-08-12T01:40:24;3.60;;;3.30;;
29380;SDS011;16364;52.490;13.326;2023-08-12T01:42:50;4.07;;;3.77;;
29380;SDS011;16364;52.490;13.326;2023-08-12T01:45:15;4.13;;;2.70;;
29380;SDS011;16364;52.490;13.326;2023-08-12T01:47:43;3.13;;;2.93;;
29380;SDS011;16364;52.490;13.326;2023-08-12T01:50:08;2.80;;;2.60;;
29380;SDS011;16364;52.490;13.326;2023-08-12T01:52:34;3.40;;;3.10;;
29380;SDS011;16364;52.490;13.326;2023-08-12T01:55:00;3.00;;;2.80;;
29380;SDS011;16364;52.490;13.326;2023-08-12T01:57:25;3.63;;;3.33;;
29380;SDS011;16364;52.490;13.326;2023-08-12T01:59:51;2.70;;;2.50;;
29380;SDS011;16364;52.490;13.326;2023-08-12T02:02:16;3.33;;;3.13;;
29380;SDS011;16364;52.490;13.326;2023-08-12T02:04:41;3.50;;;3.20;;
29380;SDS011;16364;52.490;13.326;2023-08-12T02:07:08;3.13;;;2.93;;
29380;SDS011;16364;52.490;13.326;2023-08-12T02:09:33;3.30;;;3.10;;
29380;SDS011;16364;52.490;13.326;2023-08-12T02:11:58;3.00;;;2.80;;
29380;SDS011;16364;52.490;13.326;2023-08-12T02:14:24;3.00;;;2.80;;
29380;SDS011;16364;52.490;13.326;2023-08-12T02:16:49;2.93;;;2.73;;
29380;SDS011;16364;52.490;13.326;2023-08-12T02:19:14;3.57;;;3.27;;
29380;SDS011;16364;52.490;13.326;2023-08-12T02:21:40;2.73;;;2.57;;
29380;SDS011;16364;52.490;13.326;2023-08-12T02:24:06;4.40;;;2.57;;
29380;SDS011;16364;52.490;13.326;2023-08-12T02:26:31;3.10;;;2.90;;
29380;SDS011;16364;52.490;13.326;2023-08-12T02:28:56;3.70;;;3.37;;
29380;SDS011;16364;52.490;13.326;2023-08-12T02:31:21;3.40;;;3.10;;
29380;SDS011;16364;52.490;13.326;2023-08-12T02:33:47;2.73;;;2.60;;
29380;SDS011;16364;52.490;13.326;2023-08-12T02:36:12;3.57;;;3.27;;
29380;SDS011;16364;52.490;13.326;2023-08-12T02:38:38;2.80;;;2.60;;
29380;SDS011;16364;52.490;13.326;2023-08-12T02:41:03;3.10;;;2.83;;
29380;SDS011;16364;52.490;13.326;2023-08-12T02:43:28;3.03;;;2.67;;
29380;SDS011;16364;52.490;13.326;2023-08-12T02:45:53;3.83;;;3.00;;
29380;SDS011;16364;52.490;13.326;2023-08-12T02:48:19;3.10;;;2.83;;
29380;SDS011;16364;52.490;13.326;2023-08-12T02:50:44;3.43;;;3.13;;
29380;SDS011;16364;52.490;13.326;2023-08-12T02:53:09;3.53;;;3.23;;
29380;SDS011;16364;52.490;13.326;2023-08-12T02:58:37;3.37;;;3.07;;
29380;SDS011;16364;52.490;13.326;2023-08-12T03:01:03;3.37;;;3.17;;
29380;SDS011;16364;52.490;13.326;2023-08-12T03:03:29;2.77;;;2.57;;
29380;SDS011;16364;52.490;13.326;2023-08-12T03:05:54;3.93;;;3.17;;
29380;SDS011;16364;52.490;13.326;2023-08-12T03:08:19;3.73;;;3.20;;
29380;SDS011;16364;52.490;13.326;2023-08-12T03:10:45;3.00;;;2.80;;
29380;SDS011;16364;52.490;13.326;2023-08-12T03:13:10;2.97;;;2.77;;
29380;SDS011;16364;52.490;13.326;2023-08-12T03:15:38;3.50;;;3.30;;
29380;SDS011;16364;52.490;13.326;2023-08-12T03:18:03;3.20;;;3.00;;
29380;SDS011;16364;52.490;13.326;2023-08-12T03:20:28;3.83;;;3.53;;
29380;SDS011;16364;52.490;13.326;2023-08-12T03:22:53;3.83;;;3.53;;
29380;SDS011;16364;52.490;13.326;2023-08-12T03:25:19;2.90;;;2.70;;
29380;SDS011;16364;52.490;13.326;2023-08-12T03:27:44;3.30;;;3.10;;
29380;SDS011;16364;52.490;13.326;2023-08-12T03:30:10;3.87;;;3.50;;
29380;SDS011;16364;52.490;13.326;2023-08-12T03:32:35;3.93;;;3.33;;
29380;SDS011;16364;52.490;13.326;2023-08-12T03:35:01;3.30;;;3.10;;
29380;SDS011;16364;52.490;13.326;2023-08-12T03:37:27;4.63;;;4.33;;
29380;SDS011;16364;52.490;13.326;2023-08-12T03:39:52;3.37;;;3.17;;
29380;SDS011;16364;52.490;13.326;2023-08-12T03:42:17;3.37;;;3.17;;
29380;SDS011;16364;52.490;13.326;2023-08-12T03:44:43;3.37;;;3.17;;
29380;SDS011;16364;52.490;13.326;2023-08-12T03:47:09;4.87;;;4.43;;
29380;SDS011;16364;52.490;13.326;2023-08-12T03:49:34;3.73;;;3.43;;
29380;SDS011;16364;52.490;13.326;2023-08-12T03:51:59;3.50;;;3.30;;
29380;SDS011;16364;52.490;13.326;2023-08-12T03:54:25;5.13;;;4.20;;
29380;SDS011;16364;52.490;13.326;2023-08-12T03:56:50;4.57;;;4.27;;
29380;SDS011;16364;52.490;13.326;2023-08-12T03:59:15;4.63;;;4.13;;
29380;SDS011;16364;52.490;13.326;2023-08-12T04:01:40;4.63;;;3.73;;
29380;SDS011;16364;52.490;13.326;2023-08-12T04:04:06;3.77;;;3.47;;
29380;SDS011;16364;52.490;13.326;2023-08-12T04:06:31;3.30;;;3.10;;
29380;SDS011;16364;52.490;13.326;2023-08-12T04:08:56;4.43;;;4.13;;
29380;SDS011;16364;52.490;13.326;2023-08-12T04:11:21;4.10;;;3.80;;
29380;SDS011;16364;52.490;13.326;2023-08-12T04:13:47;4.60;;;4.30;;
29380;SDS011;16364;52.490;13.326;2023-08-12T04:16:12;4.87;;;4.30;;
29380;SDS011;16364;52.490;13.326;2023-08-12T04:18:37;4.43;;;4.13;;
29380;SDS011;16364;52.490;13.326;2023-08-12T04:21:03;4.50;;;4.20;;
29380;SDS011;16364;52.490;13.326;2023-08-12T04:23:28;4.10;;;3.50;;
29380;SDS011;16364;52.490;13.326;2023-08-12T04:25:53;3.93;;;3.63;;
29380;SDS011;16364;52.490;13.326;2023-08-12T04:28:21;3.53;;;3.33;;
29380;SDS011;16364;52.490;13.326;2023-08-12T04:30:47;4.10;;;3.90;;
29380;SDS011;16364;52.490;13.326;2023-08-12T04:33:12;5.03;;;4.00;;
29380;SDS011;16364;52.490;13.326;2023-08-12T04:35:38;5.10;;;4.70;;
29380;SDS011;16364;52.490;13.326;2023-08-12T04:38:03;6.53;;;6.00;;
29380;SDS011;16364;52.490;13.326;2023-08-12T04:40:29;7.50;;;6.90;;
29380;SDS011;16364;52.490;13.326;2023-08-12T04:42:54;5.33;;;5.03;;
29380;SDS011;16364;52.490;13.326;2023-08-12T04:45:19;4.50;;;4.20;;
29380;SDS011;16364;52.490;13.326;2023-08-12T04:47:45;5.33;;;3.93;;
29380;SDS011;16364;52.490;13.326;2023-08-12T04:50:10;4.43;;;4.07;;
29380;SDS011;16364;52.490;13.326;2023-08-12T04:52:35;4.07;;;3.77;;
29380;SDS011;16364;52.490;13.326;2023-08-12T04:55:00;3.43;;;3.23;;
29380;SDS011;16364;52.490;13.326;2023-08-12T04:57:26;3.53;;;3.33;;
29380;SDS011;16364;52.490;13.326;2023-08-12T04:59:51;4.03;;;3.67;;
29380;SDS011;16364;52.490;13.326;2023-08-12T05:02:16;4.13;;;3.43;;
29380;SDS011;16364;52.490;13.326;2023-08-12T05:04:47;4.93;;;4.57;;
29380;SDS011;16364;52.490;13.326;2023-08-12T05:07:12;7.00;;;3.93;;
29380;SDS011;16364;52.490;13.326;2023-08-12T05:09:37;3.93;;;3.63;;
29380;SDS011;16364;52.490;13.326;2023-08-12T05:12:02;3.50;;;3.27;;
29380;SDS011;16364;52.490;13.326;2023-08-12T05:14:28;3.63;;;3.40;;
29380;SDS011;16364;52.490;13.326;2023-08-12T05:16:53;4.90;;;3.90;;
29380;SDS011;16364;52.490;13.326;2023-08-12T05:19:18;3.80;;;3.50;;
29380;SDS011;16364;52.490;13.326;2023-08-12T05:21:43;3.40;;;3.10;;
29380;SDS011;16364;52.490;13.326;2023-08-12T05:24:09;4.00;;;3.60;;
29380;SDS011;16364;52.490;13.326;2023-08-12T05:26:36;3.60;;;3.40;;
29380;SDS011;16364;52.490;13.326;2023-08-12T05:29:01;4.17;;;3.77;;
29380;SDS011;16364;52.490;13.326;2023-08-12T05:31:26;3.00;;;2.80;;
29380;SDS011;16364;52.490;13.326;2023-08-12T05:33:52;5.60;;;3.17;;
29380;SDS011;16364;52.490;13.326;2023-08-12T05:36:17;4.60;;;3.50;;
29380;SDS011;16364;52.490;13.326;2023-08-12T05:38:42;3.77;;;3.43;;
29380;SDS011;16364;52.490;13.326;2023-08-12T05:41:07;3.10;;;2.90;;
29380;SDS011;16364;52.490;13.326;2023-08-12T05:43:33;3.60;;;3.30;;
29380;SDS011;16364;52.490;13.326;2023-08-12T05:45:59;3.20;;;2.90;;
29380;SDS011;16364;52.490;13.326;2023-08-12T05:48:24;4.63;;;3.50;;
29380;SDS011;16364;52.490;13.326;2023-08-12T05:50:49;4.03;;;3.23;;
29380;SDS011;16364;52.490;13.326;2023-08-12T05:53:14;5.23;;;2.80;;
29380;SDS011;16364;52.490;13.326;2023-08-12T05:55:40;3.10;;;2.90;;
29380;SDS011;16364;52.490;13.326;2023-08-12T05:58:05;2.53;;;2.33;;
29380;SDS011;16364;52.490;13.326;2023-08-12T06:00:30;3.60;;;3.37;;
29380;SDS011;16364;52.490;13.326;2023-08-12T06:02:56;2.80;;;2.60;;
29380;SDS011;16364;52.490;13.326;2023-08-12T06:05:21;3.17;;;2.93;;
29380;SDS011;16364;52.490;13.326;2023-08-12T06:07:46;2.97;;;2.77;;
29380;SDS011;16364;52.490;13.326;2023-08-12T06:10:11;3.10;;;2.90;;
29380;SDS011;16364;52.490;13.326;2023-08-12T06:12:36;2.70;;;2.50;;
29380;SDS011;16364;52.490;13.326;2023-08-12T06:15:02;2.80;;;2.53;;
29380;SDS011;16364;52.490;13.326;2023-08-12T06:17:27;3.77;;;3.43;;
29380;SDS011;16364;52.490;13.326;2023-08-12T06:19:52;2.97;;;2.47;;
29380;SDS011;16364;52.490;13.326;2023-08-12T06:22:18;3.43;;;3.20;;
29380;SDS011;16364;52.490;13.326;2023-08-12T06:24:43;3.30;;;3.10;;
29380;SDS011;16364;52.490;13.326;2023-08-12T06:27:08;3.23;;;3.03;;
29380;SDS011;16364;52.490;13.326;2023-08-12T06:29:33;4.00;;;3.70;;
29380;SDS011;16364;52.490;13.326;2023-08-12T06:31:59;4.00;;;3.07;;
29380;SDS011;16364;52.490;13.326;2023-08-12T06:34:24;3.40;;;3.10;;
29380;SDS011;16364;52.490;13.326;2023-08-12T06:36:49;3.50;;;3.20;;
29380;SDS011;16364;52.490;13.326;2023-08-12T06:39:14;3.00;;;2.80;;
29380;SDS011;16364;52.490;13.326;2023-08-12T06:41:40;3.30;;;3.00;;
29380;SDS011;16364;52.490;13.326;2023-08-12T06:44:05;2.70;;;2.50;;
29380;SDS011;16364;52.490;13.326;2023-08-12T06:46:30;6.43;;;3.37;;
29380;SDS011;16364;52.490;13.326;2023-08-12T06:48:56;2.90;;;2.70;;
29380;SDS011;16364;52.490;13.326;2023-08-12T06:51:21;3.37;;;3.10;;
29380;SDS011;16364;52.490;13.326;2023-08-12T06:53:46;2.80;;;2.60;;
29380;SDS011;16364;52.490;13.326;2023-08-12T06:56:11;3.20;;;3.00;;
29380;SDS011;16364;52.490;13.326;2023-08-12T06:58:37;3.80;;;3.50;;
29380;SDS011;16364;52.490;13.326;2023-08-12T07:01:02;3.10;;;2.90;;
29380;SDS011;16364;52.490;13.326;2023-08-12T07:03:27;4.00;;;3.70;;
29380;SDS011;16364;52.490;13.326;2023-08-12T07:05:53;4.17;;;3.87;;
29380;SDS011;16364;52.490;13.326;2023-08-12T07:08:18;3.33;;;2.80;;
29380;SDS011;16364;52.490;13.326;2023-08-12T07:10:44;3.23;;;3.03;;
29380;SDS011;16364;52.490;13.326;2023-08-12T07:13:09;3.10;;;2.90;;
29380;SDS011;16364;52.490;13.326;2023-08-12T07:15:34;3.40;;;3.20;;
29380;SDS011;16364;52.490;13.326;2023-08-12T07:17:59;3.80;;;3.50;;
29380;SDS011;16364;52.490;13.326;2023-08-12T07:20:25;3.67;;;3.37;;
29380;SDS011;16364;52.490;13.326;2023-08-12T07:22:50;3.10;;;2.90;;
29380;SDS011;16364;52.490;13.326;2023-08-12T07:25:15;3.50;;;3.20;;
29380;SDS011;16364;52.490;13.326;2023-08-12T07:27:41;3.43;;;3.23;;
29380;SDS011;16364;52.490;13.326;2023-08-12T07:30:06;4.13;;;3.93;;
29380;SDS011;16364;52.490;13.326;2023-08-12T07:32:32;4.30;;;4.00;;
29380;SDS011;16364;52.490;13.326;2023-08-12T07:34:58;3.70;;;3.40;;
29380;SDS011;16364;52.490;13.326;2023-08-12T07:37:23;4.23;;;3.90;;
29380;SDS011;16364;52.490;13.326;2023-08-12T07:39:48;3.50;;;3.20;;
29380;SDS011;16364;52.490;13.326;2023-08-12T07:42:13;3.50;;;3.20;;
29380;SDS011;16364;52.490;13.326;2023-08-12T07:44:39;3.43;;;3.13;;
29380;SDS011;16364;52.490;13.326;2023-08-12T07:47:04;3.03;;;2.83;;
29380;SDS011;16364;52.490;13.326;2023-08-12T07:49:29;3.37;;;2.87;;
29380;SDS011;16364;52.490;13.326;2023-08-12T07:51:54;3.47;;;3.23;;
29380;SDS011;16364;52.490;13.326;2023-08-12T07:54:20;3.60;;;3.30;;
29380;SDS011;16364;52.490;13.326;2023-08-12T07:56:45;3.50;;;3.20;;
29380;SDS011;16364;52.490;13.326;2023-08-12T07:59:10;2.87;;;2.67;;
29380;SDS011;16364;52.490;13.326;2023-08-12T08:01:36;3.43;;;3.23;;
29380;SDS011;16364;52.490;13.326;2023-08-12T08:04:01;3.60;;;3.37;;
29380;SDS011;16364;52.490;13.326;2023-08-12T08:06:26;3.77;;;3.27;;
29380;SDS011;16364;52.490;13.326;2023-08-12T08:08:53;3.50;;;3.20;;
29380;SDS011;16364;52.490;13.326;2023-08-12T08:11:19;3.83;;;3.33;;
29380;SDS011;16364;52.490;13.326;2023-08-12T08:13:44;4.23;;;3.83;;
29380;SDS011;16364;52.490;13.326;2023-08-12T08:16:09;7.27;;;6.47;;
29380;SDS011;16364;52.490;13.326;2023-08-12T08:18:34;6.00;;;5.60;;
29380;SDS011;16364;52.490;13.326;2023-08-12T08:21:00;6.17;;;5.70;;
29380;SDS011;16364;52.490;13.326;2023-08-12T08:23:25;6.93;;;6.30;;
29380;SDS011;16364;52.490;13.326;2023-08-12T08:25:50;5.53;;;5.10;;
29380;SDS011;16364;52.490;13.326;2023-08-12T08:28:16;4.40;;;4.10;;
29380;SDS011;16364;52.490;13.326;2023-08-12T08:30:41;4.77;;;4.47;;
29380;SDS011;16364;52.490;13.326;2023-08-12T08:33:06;4.73;;;4.30;;
29380;SDS011;16364;52.490;13.326;2023-08-12T08:35:32;4.70;;;4.30;;
29380;SDS011;16364;52.490;13.326;2023-08-12T08:37:57;4.70;;;4.40;;
29380;SDS011;16364;52.490;13.326;2023-08-12T08:40:22;4.17;;;3.87;;
29380;SDS011;16364;52.490;13.326;2023-08-12T08:42:50;3.50;;;3.20;;
29380;SDS011;16364;52.490;13.326;2023-08-12T08:45:17;3.60;;;3.40;;
29380;SDS011;16364;52.490;13.326;2023-08-12T08:47:42;4.77;;;4.43;;
29380;SDS011;16364;52.490;13.326;2023-08-12T08:50:08;4.93;;;3.70;;
29380;SDS011;16364;52.490;13.326;2023-08-12T08:52:33;4.73;;;3.90;;
29380;SDS011;16364;52.490;13.326;2023-08-12T08:55:00;4.30;;;4.07;;
29380;SDS011;16364;52.490;13.326;2023-08-12T08:57:25;3.83;;;3.50;;
29380;SDS011;16364;52.490;13.326;2023-08-12T08:59:53;4.07;;;3.77;;
29380;SDS011;16364;52.490;13.326;2023-08-12T09:02:18;3.90;;;3.50;;
29380;SDS011;16364;52.490;13.326;2023-08-12T09:04:44;5.20;;;4.80;;
29380;SDS011;16364;52.490;13.326;2023-08-12T09:07:09;5.43;;;5.00;;
29380;SDS011;16364;52.490;13.326;2023-08-12T09:09:35;6.97;;;6.47;;
29380;SDS011;16364;52.490;13.326;2023-08-12T09:12:00;5.60;;;5.20;;
29380;SDS011;16364;52.490;13.326;2023-08-12T09:14:27;6.10;;;5.50;;
29380;SDS011;16364;52.490;13.326;2023-08-12T09:16:52;4.27;;;3.87;;
29380;SDS011;16364;52.490;13.326;2023-08-12T09:19:17;3.60;;;3.40;;
29380;SDS011;16364;52.490;13.326;2023-08-12T09:21:43;4.43;;;3.40;;
29380;SDS011;16364;52.490;13.326;2023-08-12T09:24:08;4.20;;;3.83;;
29380;SDS011;16364;52.490;13.326;2023-08-12T09:26:33;7.93;;;7.13;;
29380;SDS011;16364;52.490;13.326;2023-08-12T09:28:59;5.80;;;5.30;;
29380;SDS011;16364;52.490;13.326;2023-08-12T09:31:26;4.70;;;4.30;;
29380;SDS011;16364;52.490;13.326;2023-08-12T09:33:52;4.30;;;3.90;;
29380;SDS011;16364;52.490;13.326;2023-08-12T09:36:17;5.97;;;4.17;;
29380;SDS011;16364;52.490;13.326;2023-08-12T09:38:43;5.73;;;5.17;;
29380;SDS011;16364;52.490;13.326;2023-08-12T09:41:08;5.20;;;4.90;;
29380;SDS011;16364;52.490;13.326;2023-08-12T09:43:34;4.57;;;4.17;;
29380;SDS011;16364;52.490;13.326;2023-08-12T09:45:59;4.50;;;4.17;;
29380;SDS011;16364;52.490;13.326;2023-08-12T09:48:25;4.23;;;3.87;;
29380;SDS011;16364;52.490;13.326;2023-08-12T09:50:50;6.00;;;4.93;;
29380;SDS011;16364;52.490;13.326;2023-08-12T09:53:15;4.50;;;4.10;;
29380;SDS011;16364;52.490;13.326;2023-08-12T09:55:40;3.97;;;3.70;;
29380;SDS011;16364;52.490;13.326;2023-08-12T09:58:06;4.13;;;3.83;;
29380;SDS011;16364;52.490;13.326;2023-08-12T10:00:32;4.80;;;4.40;;
29380;SDS011;16364;52.490;13.326;2023-08-12T10:02:58;3.57;;;3.37;;
29380;SDS011;16364;52.490;13.326;2023-08-12T10:05:26;3.77;;;3.50;;
29380;SDS011;16364;52.490;13.326;2023-08-12T10:07:52;3.50;;;3.30;;
29380;SDS011;16364;52.490;13.326;2023-08-12T10:10:18;3.80;;;3.50;;
29380;SDS011;16364;52.490;13.326;2023-08-12T10:12:43;4.93;;;4.60;;
29380;SDS011;16364;52.490;13.326;2023-08-12T10:15:09;6.10;;;4.50;;
29380;SDS011;16364;52.490;13.326;2023-08-12T10:17:34;4.47;;;4.07;;
29380;SDS011;16364;52.490;13.326;2023-08-12T10:20:00;4.00;;;3.80;;
29380;SDS011;16364;52.490;13.326;2023-08-12T10:22:28;4.63;;;4.33;;
29380;SDS011;16364;52.490;13.326;2023-08-12T10:24:54;4.33;;;4.00;;
29380;SDS011;16364;52.490;13.326;2023-08-12T10:27:19;4.87;;;4.57;;
29380;SDS011;16364;52.490;13.326;2023-08-12T10:29:45;4.07;;;3.60;;
29380;SDS011;16364;52.490;13.326;2023-08-12T10:32:11;3.90;;;3.70;;
29380;SDS011;16364;52.490;13.326;2023-08-12T10:34:36;3.70;;;3.40;;
29380;SDS011;16364;52.490;13.326;2023-08-12T10:37:02;4.50;;;4.20;;
29380;SDS011;16364;52.490;13.326;2023-08-12T10:39:28;4.40;;;4.00;;
29380;SDS011;16364;52.490;13.326;2023-08-12T10:41:54;5.80;;;5.37;;
29380;SDS011;16364;52.490;13.326;2023-08-12T10:44:20;4.33;;;4.03;;
29380;SDS011;16364;52.490;13.326;2023-08-12T10:46:49;4.40;;;4.10;;
29380;SDS011;16364;52.490;13.326;2023-08-12T10:49:15;4.97;;;4.57;;
29380;SDS011;16364;52.490;13.326;2023-08-12T10:51:41;5.30;;;4.90;;
29380;SDS011;16364;52.490;13.326;2023-08-12T10:54:26;5.30;;;4.90;;
29380;SDS011;16364;52.490;13.326;2023-08-12T11:00:00;6.50;;;5.97;;
29380;SDS011;16364;52.490;13.326;2023-08-12T11:02:19;6.10;;;5.80;;
29380;SDS011;16364;52.490;13.326;2023-08-12T11:04:48;5.50;;;5.10;;
29380;SDS011;16364;52.490;13.326;2023-08-12T11:07:14;4.07;;;3.87;;
29380;SDS011;16364;52.490;13.326;2023-08-12T11:09:40;4.63;;;4.23;;
29380;SDS011;16364;52.490;13.326;2023-08-12T11:12:05;5.70;;;5.33;;
29380;SDS011;16364;52.490;13.326;2023-08-12T11:14:30;6.20;;;5.43;;
29380;SDS011;16364;52.490;13.326;2023-08-12T11:16:56;5.20;;;4.90;;
29380;SDS011;16364;52.490;13.326;2023-08-12T11:19:21;5.03;;;4.77;;
29380;SDS011;16364;52.490;13.326;2023-08-12T11:21:47;4.83;;;4.53;;
29380;SDS011;16364;52.490;13.326;2023-08-12T11:24:12;4.10;;;3.90;;
29380;SDS011;16364;52.490;13.326;2023-08-12T11:26:37;4.90;;;4.60;;
29380;SDS011;16364;52.490;13.326;2023-08-12T11:29:08;4.17;;;3.87;;
29380;SDS011;16364;52.490;13.326;2023-08-12T11:31:33;4.20;;;3.90;;
29380;SDS011;16364;52.490;13.326;2023-08-12T11:33:59;5.53;;;4.40;;
29380;SDS011;16364;52.490;13.326;2023-08-12T11:36:24;5.80;;;5.30;;
29380;SDS011;16364;52.490;13.326;2023-08-12T11:38:49;5.90;;;3.70;;
29380;SDS011;16364;52.490;13.326;2023-08-12T11:41:17;5.50;;;4.00;;
29380;SDS011;16364;52.490;13.326;2023-08-12T11:43:42;4.00;;;3.63;;
29380;SDS011;16364;52.490;13.326;2023-08-12T11:46:07;4.07;;;3.77;;
29380;SDS011;16364;52.490;13.326;2023-08-12T11:48:32;4.67;;;4.37;;
29380;SDS011;16364;52.490;13.326;2023-08-12T11:50:58;4.23;;;3.93;;
29380;SDS011;16364;52.490;13.326;2023-08-12T11:53:23;4.17;;;3.73;;
29380;SDS011;16364;52.490;13.326;2023-08-12T11:55:49;3.20;;;3.00;;
29380;SDS011;16364;52.490;13.326;2023-08-12T11:58:14;4.83;;;4.43;;
29380;SDS011;16364;52.490;13.326;2023-08-12T12:00:44;4.23;;;3.80;;
29380;SDS011;16364;52.490;13.326;2023-08-12T12:03:09;7.03;;;4.17;;
29380;SDS011;16364;52.490;13.326;2023-08-12T12:05:34;4.73;;;4.23;;
29380;SDS011;16364;52.490;13.326;2023-08-12T12:08:00;5.27;;;4.80;;
29380;SDS011;16364;52.490;13.326;2023-08-12T12:10:26;6.53;;;4.57;;
29380;SDS011;16364;52.490;13.326;2023-08-12T12:12:55;4.50;;;4.30;;
29380;SDS011;16364;52.490;13.326;2023-08-12T12:15:20;5.53;;;4.40;;
29380;SDS011;16364;52.490;13.326;2023-08-12T12:17:46;4.23;;;3.93;;
29380;SDS011;16364;52.490;13.326;2023-08-12T12:20:11;4.73;;;4.43;;
29380;SDS011;16364;52.490;13.326;2023-08-12T12:22:37;4.20;;;3.90;;
29380;SDS011;16364;52.490;13.326;2023-08-12T12:25:06;4.63;;;4.37;;
29380;SDS011;16364;52.490;13.326;2023-08-12T12:27:32;4.30;;;3.90;;
29380;SDS011;16364;52.490;13.326;2023-08-12T12:29:58;3.83;;;3.53;;
29380;SDS011;16364;52.490;13.326;2023-08-12T12:32:23;3.50;;;3.30;;
29380;SDS011;16364;52.490;13.326;2023-08-12T12:34:48;3.30;;;3.10;;
29380;SDS011;16364;52.490;13.326;2023-08-12T12:37:14;4.70;;;3.40;;
29380;SDS011;16364;52.490;13.326;2023-08-12T12:39:40;4.40;;;4.10;;
29380;SDS011;16364;52.490;13.326;2023-08-12T12:42:05;4.50;;;4.20;;
29380;SDS011;16364;52.490;13.326;2023-08-12T12:44:31;4.47;;;4.17;;
29380;SDS011;16364;52.490;13.326;2023-08-12T12:46:56;4.13;;;3.73;;
29380;SDS011;16364;52.490;13.326;2023-08-12T12:49:21;3.70;;;3.50;;
29380;SDS011;16364;52.490;13.326;2023-08-12T12:51:46;3.90;;;3.70;;
29380;SDS011;16364;52.490;13.326;2023-08-12T12:54:12;3.87;;;3.57;;
29380;SDS011;16364;52.490;13.326;2023-08-12T12:56:37;4.47;;;4.17;;
29380;SDS011;16364;52.490;13.326;2023-08-12T12:59:02;3.90;;;3.60;;
29380;SDS011;16364;52.490;13.326;2023-08-12T13:01:30;5.97;;;5.50;;
29380;SDS011;16364;52.490;13.326;2023-08-12T13:03:55;3.73;;;3.53;;
29380;SDS011;16364;52.490;13.326;2023-08-12T13:06:20;4.40;;;4.20;;
29380;SDS011;16364;52.490;13.326;2023-08-12T13:08:46;4.73;;;4.33;;
29380;SDS011;16364;52.490;13.326;2023-08-12T13:11:11;3.50;;;3.30;;
29380;SDS011;16364;52.490;13.326;2023-08-12T13:13:36;3.70;;;3.40;;
29380;SDS011;16364;52.490;13.326;2023-08-12T13:16:01;3.70;;;3.50;;
29380;SDS011;16364;52.490;13.326;2023-08-12T13:18:27;2.97;;;2.77;;
29380;SDS011;16364;52.490;13.326;2023-08-12T13:20:52;3.60;;;3.40;;
29380;SDS011;16364;52.490;13.326;2023-08-12T13:23:18;4.40;;;4.10;;
29380;SDS011;16364;52.490;13.326;2023-08-12T13:25:43;3.63;;;3.40;;
29380;SDS011;16364;52.490;13.326;2023-08-12T13:28:08;4.37;;;4.03;;
29380;SDS011;16364;52.490;13.326;2023-08-12T13:30:33;4.00;;;3.80;;
29380;SDS011;16364;52.490;13.326;2023-08-12T13:32:59;4.03;;;3.63;;
29380;SDS011;16364;52.490;13.326;2023-08-12T13:35:24;4.53;;;4.13;;
29380;SDS011;16364;52.490;13.326;2023-08-12T13:37:50;3.87;;;3.57;;
29380;SDS011;16364;52.490;13.326;2023-08-12T13:40:16;3.63;;;3.43;;
29380;SDS011;16364;52.490;13.326;2023-08-12T13:42:41;3.57;;;3.37;;
29380;SDS011;16364;52.490;13.326;2023-08-12T13:45:07;3.30;;;3.10;;
29380;SDS011;16364;52.490;13.326;2023-08-12T13:47:35;3.43;;;3.23;;
29380;SDS011;16364;52.490;13.326;2023-08-12T13:50:00;2.93;;;2.73;;
29380;SDS011;16364;52.490;13.326;2023-08-12T13:52:26;3.07;;;2.80;;
29380;SDS011;16364;52.490;13.326;2023-08-12T13:54:51;3.70;;;3.40;;
29380;SDS011;16364;52.490;13.326;2023-08-12T13:57:16;4.23;;;4.03;;
29380;SDS011;16364;52.490;13.326;2023-08-12T13:59:42;4.07;;;3.80;;
29380;SDS011;16364;52.490;13.326;2023-08-12T14:02:09;3.30;;;3.10;;
29380;SDS011;16364;52.490;13.326;2023-08-12T14:04:34;3.53;;;3.23;;
29380;SDS011;16364;52.490;13.326;2023-08-12T14:06:59;4.10;;;3.43;;
29380;SDS011;16364;52.490;13.326;2023-08-12T14:09:24;3.60;;;2.70;;
29380;SDS011;16364;52.490;13.326;2023-08-12T14:11:50;3.93;;;3.43;;
29380;SDS011;16364;52.490;13.326;2023-08-12T14:14:15;3.50;;;3.03;;
29380;SDS011;16364;52.490;13.326;2023-08-12T14:16:40;3.30;;;3.10;;
29380;SDS011;16364;52.490;13.326;2023-08-12T14:19:06;3.03;;;2.83;;
29380;SDS011;16364;52.490;13.326;2023-08-12T14:21:31;2.70;;;2.50;;
29380;SDS011;16364;52.490;13.326;2023-08-12T14:23:56;3.13;;;2.40;;
29380;SDS011;16364;52.490;13.326;2023-08-12T14:26:22;3.27;;;3.00;;
29380;SDS011;16364;52.490;13.326;2023-08-12T14:28:47;2.87;;;2.60;;